createdAt,value
2022-11-03T00:01:57.013Z,3.10
2022-11-03T00:04:26.303Z,3.10
2022-11-03T00:06:55.295Z,3.10
2022-11-03T00:09:28.946Z,3.60
2022-11-03T00:11:58.620Z,3.30
2022-11-03T00:14:27.092Z,2.70
2022-11-03T00:16:55.380Z,2.80
2022-11-03T00:19:23.715Z,3.10
2022-11-03T00:21:52.418Z,2.80
2022-11-03T00:24:20.828Z,2.70
2022-11-03T00:26:49.712Z,3.50
2022-11-03T00:29:17.991Z,3.40
2022-11-03T00:31:49.445Z,2.70
2022-11-03T00:34:17.977Z,3.00
2022-11-03T00:36:54.136Z,3.10
2022-11-03T00:39:22.788Z,2.90
2022-11-03T00:41:51.635Z,2.20
2022-11-03T00:44:19.928Z,2.50
2022-11-03T00:46:49.397Z,2.40
2022-11-03T00:49:17.676Z,2.40
2022-11-03T00:51:47.609Z,2.00
2022-11-03T00:54:18.473Z,2.60
2022-11-03T00:56:50.258Z,2.20
2022-11-03T00:59:20.941Z,2.10
2022-11-03T01:01:49.439Z,2.20
2022-11-03T01:04:36.647Z,2.40
2022-11-03T01:07:06.985Z,2.70
2022-11-03T01:09:37.299Z,2.40
2022-11-03T01:12:08.491Z,2.30
2022-11-03T01:14:38.867Z,2.30
2022-11-03T01:17:10.017Z,2.60
2022-11-03T01:19:38.419Z,2.50
2022-11-03T01:22:10.628Z,2.20
2022-11-03T01:24:41.253Z,2.50
2022-11-03T01:27:10.601Z,2.50
2022-11-03T01:29:38.964Z,2.90
2022-11-03T01:32:09.209Z,3.00
2022-11-03T01:34:37.614Z,2.90
2022-11-03T01:37:06.267Z,2.80
2022-11-03T01:39:34.742Z,2.90
2022-11-03T01:42:05.463Z,3.00
2022-11-03T01:44:36.742Z,3.00
2022-11-03T01:47:15.015Z,3.50
2022-11-03T01:49:47.521Z,3.50
2022-11-03T01:52:22.757Z,4.20
2022-11-03T01:54:58.891Z,3.30
2022-11-03T01:57:33.303Z,4.10
2022-11-03T02:00:03.713Z,4.00
2022-11-03T02:02:48.281Z,5.00
2022-11-03T02:05:21.616Z,3.90
2022-11-03T02:07:54.288Z,4.00
2022-11-03T02:10:22.826Z,3.80
2022-11-03T02:12:51.693Z,4.30
2022-11-03T02:15:22.380Z,3.80
2022-11-03T02:17:53.662Z,4.30
2022-11-03T02:20:24.973Z,4.70
2022-11-03T02:23:04.436Z,4.60
2022-11-03T02:25:54.706Z,4.40
2022-11-03T02:28:26.665Z,5.10
2022-11-03T02:31:04.109Z,5.10
2022-11-03T02:33:41.448Z,4.60
2022-11-03T02:36:26.038Z,5.30
2022-11-03T02:39:02.684Z,4.90
2022-11-03T02:41:34.364Z,4.80
2022-11-03T02:44:06.985Z,4.90
2022-11-03T02:46:40.600Z,5.50
2022-11-03T02:49:10.276Z,5.10
2022-11-03T02:51:39.273Z,4.80
2022-11-03T02:54:16.248Z,4.70
2022-11-03T02:56:50.338Z,5.20
2022-11-03T02:59:24.489Z,5.20
2022-11-03T03:02:01.897Z,4.20
2022-11-03T03:04:35.162Z,4.40
2022-11-03T03:07:07.920Z,4.30
2022-11-03T03:09:41.706Z,3.90
2022-11-03T03:12:12.444Z,3.90
2022-11-03T03:14:44.978Z,4.70
2022-11-03T03:17:24.048Z,4.30
2022-11-03T03:20:00.747Z,4.80
2022-11-03T03:22:37.196Z,4.90
2022-11-03T03:25:29.574Z,4.50
2022-11-03T03:28:11.135Z,4.20
2022-11-03T03:30:42.278Z,4.00
2022-11-03T03:33:14.771Z,4.50
2022-11-03T03:35:53.979Z,4.80
2022-11-03T03:38:25.845Z,4.30
2022-11-03T03:40:57.867Z,4.80
2022-11-03T03:43:28.950Z,4.30
2022-11-03T03:46:03.580Z,4.90
2022-11-03T03:48:32.579Z,4.40
2022-11-03T03:51:03.562Z,4.70
2022-11-03T03:53:31.812Z,3.80
2022-11-03T03:56:00.463Z,4.90
2022-11-03T03:58:29.071Z,4.20
2022-11-03T04:00:57.405Z,4.80
2022-11-03T04:03:29.880Z,4.80
2022-11-03T04:05:58.782Z,4.00
2022-11-03T04:08:27.142Z,3.00
2022-11-03T04:11:13.604Z,4.10
2022-11-03T04:14:01.259Z,5.20
2022-11-03T04:16:52.758Z,4.50
2022-11-03T04:19:39.849Z,4.50
2022-11-03T04:22:17.384Z,4.90
2022-11-03T04:24:47.373Z,4.20
2022-11-03T04:27:32.977Z,4.50
2022-11-03T04:30:09.938Z,4.60
2022-11-03T04:32:38.520Z,4.50
2022-11-03T04:35:16.126Z,4.50
2022-11-03T04:37:47.856Z,4.90
2022-11-03T04:40:18.365Z,5.30
2022-11-03T04:43:00.900Z,4.60
2022-11-03T04:45:33.609Z,5.10
2022-11-03T04:48:10.335Z,5.00
2022-11-03T04:50:46.620Z,4.30
2022-11-03T04:53:17.516Z,4.10
2022-11-03T04:55:49.756Z,4.40
2022-11-03T04:58:24.045Z,4.60
2022-11-03T05:00:54.475Z,4.10
2022-11-03T05:03:26.143Z,3.60
2022-11-03T05:05:57.246Z,3.60
2022-11-03T05:08:28.396Z,4.40
2022-11-03T05:10:58.939Z,4.10
2022-11-03T05:13:28.731Z,4.40
2022-11-03T05:16:06.257Z,3.60
2022-11-03T05:18:40.638Z,4.10
2022-11-03T05:21:12.694Z,4.50
2022-11-03T05:23:48.487Z,4.00
2022-11-03T05:26:25.100Z,4.00
2022-11-03T05:29:00.361Z,4.30
2022-11-03T05:31:35.241Z,4.40
2022-11-03T05:34:20.518Z,4.20
2022-11-03T05:36:50.675Z,3.90
2022-11-03T05:39:31.498Z,4.60
2022-11-03T05:42:12.825Z,4.40
2022-11-03T05:44:44.374Z,4.40
2022-11-03T05:47:18.768Z,4.40
2022-11-03T05:49:54.954Z,4.40
2022-11-03T05:52:29.832Z,4.50
2022-11-03T05:55:00.121Z,4.10
2022-11-03T05:57:35.160Z,4.60
2022-11-03T06:00:09.101Z,4.50
2022-11-03T06:02:43.202Z,4.70
2022-11-03T06:05:20.439Z,4.60
2022-11-03T06:07:50.779Z,4.60
2022-11-03T06:10:26.329Z,4.50
2022-11-03T06:13:00.354Z,4.40
2022-11-03T06:15:32.429Z,4.50
2022-11-03T06:18:10.399Z,5.10
2022-11-03T06:20:39.983Z,4.50
2022-11-03T06:23:11.890Z,4.50
2022-11-03T06:25:42.789Z,4.50
2022-11-03T06:28:18.125Z,4.50
2022-11-03T06:30:47.773Z,4.60
2022-11-03T06:33:20.850Z,5.00
2022-11-03T06:35:50.777Z,5.10
2022-11-03T06:38:23.635Z,4.60
2022-11-03T06:40:52.938Z,5.20
2022-11-03T06:43:24.256Z,5.60
2022-11-03T06:45:56.772Z,4.80
2022-11-03T06:48:28.450Z,5.70
2022-11-03T06:50:59.468Z,4.40
2022-11-03T06:53:31.640Z,5.90
2022-11-03T06:56:00.410Z,4.70
2022-11-03T06:58:34.322Z,5.00
2022-11-03T07:01:09.724Z,5.30
2022-11-03T07:03:38.755Z,5.60
2022-11-03T07:06:17.695Z,5.60
2022-11-03T07:08:50.574Z,5.10
2022-11-03T07:11:20.387Z,5.40
2022-11-03T07:13:52.453Z,6.10
2022-11-03T07:16:28.352Z,4.90
2022-11-03T07:18:59.548Z,5.40
2022-11-03T07:21:38.010Z,4.90
2022-11-03T07:24:16.328Z,4.40
2022-11-03T07:26:49.019Z,4.50
2022-11-03T07:29:22.394Z,4.80
2022-11-03T07:31:53.234Z,5.00
2022-11-03T07:34:25.007Z,5.60
2022-11-03T07:36:57.341Z,13.10
2022-11-03T07:39:32.803Z,16.30
2022-11-03T07:42:09.161Z,6.20
2022-11-03T07:44:39.792Z,8.10
2022-11-03T07:47:15.768Z,7.90
2022-11-03T07:49:49.396Z,5.80
2022-11-03T07:52:22.259Z,8.50
2022-11-03T07:54:51.847Z,5.30
2022-11-03T07:57:23.066Z,5.00
2022-11-03T07:59:56.170Z,6.40
2022-11-03T08:02:31.046Z,5.60
2022-11-03T08:05:00.283Z,6.10
2022-11-03T08:07:29.232Z,4.50
2022-11-03T08:09:57.894Z,8.00
2022-11-03T08:12:26.628Z,6.00
2022-11-03T08:14:55.041Z,3.80
2022-11-03T08:17:23.388Z,5.30
2022-11-03T08:19:52.355Z,5.20
2022-11-03T08:22:25.276Z,4.70
2022-11-03T08:24:53.904Z,5.60
2022-11-03T08:27:22.282Z,4.40
2022-11-03T08:29:50.602Z,4.50
2022-11-03T08:32:19.165Z,4.90
2022-11-03T08:34:49.377Z,4.40
2022-11-03T08:37:17.936Z,5.20
2022-11-03T08:39:49.205Z,5.00
2022-11-03T08:42:17.783Z,5.70
2022-11-03T08:44:47.194Z,5.60
2022-11-03T08:47:15.646Z,5.40
2022-11-03T08:49:49.650Z,5.40
2022-11-03T08:52:18.035Z,4.50
2022-11-03T08:54:47.582Z,4.50
2022-11-03T08:57:15.954Z,4.80
2022-11-03T08:59:44.349Z,4.70
2022-11-03T09:02:12.710Z,4.20
2022-11-03T09:04:47.173Z,3.70
2022-11-03T09:07:15.672Z,4.00
2022-11-03T09:12:34.492Z,5.00
2022-11-03T09:15:03.284Z,13.80
2022-11-03T09:17:32.057Z,8.10
2022-11-03T09:20:00.360Z,4.40
2022-11-03T09:22:28.709Z,4.70
2022-11-03T09:24:57.411Z,3.90
2022-11-03T09:27:25.760Z,5.10
2022-11-03T09:30:12.133Z,3.70
2022-11-03T09:32:41.775Z,4.50
2022-11-03T09:35:11.669Z,3.70
2022-11-03T09:37:39.969Z,3.80
2022-11-03T09:40:13.344Z,3.80
2022-11-03T09:42:42.381Z,4.10
2022-11-03T09:45:11.682Z,4.40
2022-11-03T09:47:42.804Z,4.10
2022-11-03T09:50:16.656Z,3.50
2022-11-03T09:52:51.135Z,3.20
2022-11-03T09:55:23.931Z,4.30
2022-11-03T09:57:54.681Z,3.80
2022-11-03T10:00:26.396Z,3.50
2022-11-03T10:02:55.618Z,3.00
2022-11-03T10:05:26.047Z,3.30
2022-11-03T10:07:58.853Z,4.50
2022-11-03T10:10:28.263Z,7.20
2022-11-03T10:12:59.344Z,5.20
2022-11-03T10:15:28.862Z,4.60
2022-11-03T10:17:57.559Z,3.40
2022-11-03T10:20:28.400Z,4.80
2022-11-03T10:22:56.902Z,3.10
2022-11-03T10:25:42.583Z,3.50
2022-11-03T10:28:20.380Z,2.30
2022-11-03T10:33:52.571Z,5.80
2022-11-03T10:36:25.970Z,3.40
2022-11-03T10:38:55.250Z,2.30
2022-11-03T10:41:26.346Z,2.30
2022-11-03T10:44:05.076Z,2.10
2022-11-03T10:46:51.422Z,4.30
2022-11-03T10:49:21.014Z,3.50
2022-11-03T10:51:52.881Z,2.30
2022-11-03T10:54:23.710Z,1.70
2022-11-03T10:56:54.808Z,2.10
2022-11-03T10:59:30.998Z,1.50
2022-11-03T11:02:02.415Z,1.90
2022-11-03T11:04:33.694Z,2.50
2022-11-03T11:07:02.707Z,1.60
2022-11-03T11:09:33.881Z,1.70
2022-11-03T11:12:07.271Z,2.20
2022-11-03T11:14:38.724Z,1.70
2022-11-03T11:17:43.565Z,1.60
2022-11-03T11:20:34.684Z,1.50
2022-11-03T11:23:47.836Z,1.90
2022-11-03T11:26:29.602Z,1.30
2022-11-03T11:29:43.501Z,1.70
2022-11-03T11:32:48.999Z,1.60
2022-11-03T11:35:39.917Z,1.40
2022-11-03T11:38:45.011Z,0.90
2022-11-03T11:41:13.420Z,1.40
2022-11-03T11:43:44.754Z,1.00
2022-11-03T11:46:40.251Z,1.60
2022-11-03T11:49:18.194Z,1.20
2022-11-03T11:51:49.600Z,1.70
2022-11-03T11:54:20.811Z,1.20
2022-11-03T11:56:50.250Z,1.30
2022-11-03T11:59:25.093Z,1.40
2022-11-03T12:01:56.285Z,2.30
2022-11-03T12:04:30.461Z,2.00
2022-11-03T12:07:02.098Z,1.90
2022-11-03T12:09:30.485Z,1.70
2022-11-03T12:12:07.968Z,1.20
2022-11-03T12:14:38.444Z,1.40
2022-11-03T12:17:33.395Z,1.50
2022-11-03T12:20:46.948Z,1.40
2022-11-03T12:23:32.579Z,1.00
2022-11-03T12:26:00.918Z,1.50
2022-11-03T12:28:34.233Z,2.00
2022-11-03T12:31:03.329Z,1.30
2022-11-03T12:33:31.883Z,1.30
2022-11-03T12:36:00.292Z,1.30
2022-11-03T12:38:28.594Z,1.40
2022-11-03T12:40:57.157Z,1.60
2022-11-03T12:43:28.411Z,1.50
2022-11-03T12:45:56.748Z,2.20
2022-11-03T12:48:25.327Z,1.80
2022-11-03T12:50:53.611Z,1.20
2022-11-03T12:53:22.202Z,1.10
2022-11-03T12:55:50.628Z,1.50
2022-11-03T12:58:19.006Z,1.40
2022-11-03T13:00:54.925Z,1.60
2022-11-03T13:03:25.022Z,0.90
2022-11-03T13:05:53.465Z,2.20
2022-11-03T13:08:21.782Z,2.00
2022-11-03T13:10:50.117Z,1.50
2022-11-03T13:13:18.442Z,1.90
2022-11-03T13:15:47.740Z,2.20
2022-11-03T13:18:16.571Z,2.80
2022-11-03T13:20:47.784Z,1.70
2022-11-03T13:23:20.232Z,1.10
2022-11-03T13:25:51.645Z,1.20
2022-11-03T13:28:20.185Z,1.30
2022-11-03T13:30:49.419Z,1.00
2022-11-03T13:33:17.770Z,1.60
2022-11-03T13:35:47.324Z,1.70
2022-11-03T13:38:15.991Z,1.80
2022-11-03T13:41:05.164Z,1.50
2022-11-03T13:43:32.935Z,2.20
2022-11-03T13:46:01.882Z,2.80
2022-11-03T13:49:35.471Z,1.70
2022-11-03T13:59:27.468Z,0.90
2022-11-03T14:04:52.010Z,1.50
2022-11-03T14:07:20.488Z,1.80
2022-11-03T14:09:49.373Z,1.30
2022-11-03T14:12:36.295Z,1.70
2022-11-03T14:15:08.748Z,1.90
2022-11-03T14:17:39.107Z,1.40
2022-11-03T14:20:12.566Z,1.40
2022-11-03T14:22:41.163Z,1.10
2022-11-03T14:25:10.548Z,1.00
2022-11-03T14:27:39.493Z,1.10
2022-11-03T14:30:12.274Z,1.20
2022-11-03T14:32:43.654Z,1.10
2022-11-03T14:35:14.527Z,1.00
2022-11-03T14:37:42.998Z,1.50
2022-11-03T14:40:32.052Z,0.70
2022-11-03T14:43:00.874Z,1.20
2022-11-03T14:45:29.300Z,1.20
2022-11-03T14:47:57.688Z,1.40
2022-11-03T14:50:26.033Z,1.10
2022-11-03T14:52:57.485Z,1.10
2022-11-03T14:55:28.543Z,1.00
2022-11-03T14:57:57.066Z,0.90
2022-11-03T15:00:25.848Z,1.30
2022-11-03T18:25:57.915Z,7.70
2022-11-03T18:28:26.743Z,9.60
2022-11-03T18:31:00.055Z,9.60
2022-11-03T18:33:32.050Z,10.00
2022-11-03T18:36:04.432Z,9.40
2022-11-03T18:38:35.997Z,9.60
2022-11-03T18:41:25.591Z,10.30
2022-11-03T18:43:54.091Z,11.90
2022-11-03T18:46:23.309Z,13.90
2022-11-03T18:48:51.767Z,14.00
2022-11-03T18:51:20.256Z,16.50
2022-11-03T18:53:52.230Z,16.40
2022-11-03T18:56:22.402Z,17.60
2022-11-03T18:58:53.592Z,18.00
2022-11-03T19:01:24.923Z,18.00
2022-11-03T19:03:55.703Z,16.60
2022-11-03T19:06:25.219Z,14.60
2022-11-03T19:08:59.398Z,15.40
2022-11-03T19:11:28.434Z,15.30
2022-11-03T19:13:56.938Z,15.20
2022-11-03T19:16:26.038Z,13.60
2022-11-03T19:18:54.582Z,14.40
2022-11-03T19:21:23.712Z,12.60
2022-11-03T19:23:58.069Z,15.60
2022-11-03T19:26:32.996Z,13.60
2022-11-03T19:29:09.267Z,14.00
2022-11-03T19:31:45.482Z,11.50
2022-11-03T19:34:18.158Z,10.30
2022-11-03T19:36:49.145Z,9.10
2022-11-03T19:39:25.274Z,9.70
2022-11-03T19:42:12.911Z,9.20
2022-11-03T19:44:44.570Z,8.70
2022-11-03T19:47:16.534Z,9.00
2022-11-03T19:49:52.513Z,7.60
2022-11-03T19:52:26.087Z,8.30
2022-11-03T19:54:55.590Z,7.90
2022-11-03T19:57:23.992Z,12.60
2022-11-03T19:59:58.069Z,16.40
2022-11-03T20:02:27.582Z,12.90
2022-11-03T20:04:56.120Z,11.60
2022-11-03T20:07:31.540Z,11.70
2022-11-03T20:10:02.236Z,10.00
2022-11-03T20:12:31.277Z,10.60
2022-11-03T20:14:59.638Z,9.60
2022-11-03T20:17:28.463Z,11.10
2022-11-03T20:19:56.908Z,10.20
2022-11-03T20:22:29.606Z,11.00
2022-11-03T20:25:00.251Z,11.00
2022-11-03T20:27:28.802Z,10.50
2022-11-03T20:29:57.688Z,13.10
2022-11-03T20:32:26.324Z,12.10
2022-11-03T20:34:55.113Z,11.90
2022-11-03T20:37:24.409Z,11.20
2022-11-03T20:39:53.188Z,11.00
2022-11-03T20:42:24.843Z,11.30
2022-11-03T20:44:54.180Z,10.70
2022-11-03T20:47:22.702Z,11.00
2022-11-03T20:49:50.977Z,10.40
2022-11-03T20:52:19.562Z,11.40
2022-11-03T20:54:55.041Z,10.30
2022-11-03T20:57:23.484Z,10.20
2022-11-03T20:59:51.803Z,10.10
2022-11-03T21:02:20.204Z,12.50
2022-11-03T21:04:50.841Z,10.70
2022-11-03T21:07:19.191Z,11.00
2022-11-03T21:09:50.160Z,10.60
2022-11-03T21:12:18.609Z,10.20
2022-11-03T21:15:01.493Z,10.40
2022-11-03T21:17:48.689Z,11.10
2022-11-03T21:20:17.084Z,9.60
2022-11-03T21:22:52.550Z,11.10
2022-11-03T21:25:23.200Z,8.20
2022-11-03T21:27:52.990Z,10.90
2022-11-03T21:30:22.746Z,11.80
2022-11-03T21:32:51.203Z,11.30
2022-11-03T21:35:21.868Z,14.20
2022-11-03T21:37:50.285Z,14.60
2022-11-03T21:40:18.770Z,13.90
2022-11-03T21:43:08.760Z,14.30
2022-11-03T21:45:37.232Z,11.90
2022-11-03T21:48:25.835Z,12.60
2022-11-03T21:50:54.108Z,12.20
2022-11-03T21:53:22.600Z,10.40
2022-11-03T21:55:50.947Z,9.40
2022-11-03T21:58:19.394Z,10.30
2022-11-03T22:00:48.605Z,9.30
2022-11-03T22:03:17.180Z,10.70
2022-11-03T22:05:45.516Z,9.00
2022-11-03T22:08:16.718Z,8.20
2022-11-03T22:10:45.263Z,8.50
2022-11-03T22:13:13.580Z,8.80
2022-11-03T22:16:00.173Z,8.80
2022-11-03T22:18:28.407Z,8.90
2022-11-03T22:21:17.064Z,9.10
2022-11-03T22:24:03.610Z,8.30
2022-11-03T22:26:50.074Z,8.20
2022-11-03T22:29:36.981Z,7.80
2022-11-03T22:32:14.045Z,7.30
2022-11-03T22:35:01.260Z,7.00
2022-11-03T22:40:16.944Z,9.50
2022-11-03T22:43:03.681Z,9.50
2022-11-03T22:45:51.800Z,9.50
2022-11-03T22:48:21.709Z,9.20
2022-11-03T22:50:57.116Z,9.60
2022-11-03T22:53:44.450Z,9.00
2022-11-03T22:56:13.031Z,10.50
2022-11-03T22:58:42.613Z,10.20
2022-11-03T23:01:12.493Z,9.30
2022-11-03T23:03:51.004Z,8.80
2022-11-03T23:08:51.675Z,7.70
2022-11-03T23:11:21.388Z,8.50
2022-11-03T23:13:54.340Z,9.20
2022-11-03T23:16:24.083Z,8.30
2022-11-03T23:19:11.031Z,9.20
2022-11-03T23:21:39.652Z,8.20
2022-11-03T23:24:26.615Z,8.60
2022-11-03T23:26:55.565Z,7.70
2022-11-03T23:29:24.463Z,9.10
2022-11-03T23:31:53.976Z,8.10
2022-11-03T23:34:22.616Z,7.80
2022-11-03T23:36:52.130Z,7.90
2022-11-03T23:39:21.720Z,6.90
2022-11-03T23:41:52.683Z,8.10
2022-11-03T23:44:21.400Z,8.70
2022-11-03T23:47:07.966Z,10.80
2022-11-03T23:49:36.217Z,8.50
2022-11-03T23:52:04.850Z,9.40
2022-11-03T23:54:33.493Z,8.20
2022-11-03T23:57:36.749Z,8.90
